createdAt,value
2018-12-13T00:00:29.493Z,1007.36
2018-12-13T00:01:28.033Z,1007.29
2018-12-13T00:02:26.558Z,1007.33
2018-12-13T00:03:25.115Z,1007.29
2018-12-13T00:04:23.684Z,1007.27
2018-12-13T00:05:22.262Z,1007.29
2018-12-13T00:06:21.232Z,1007.27
2018-12-13T00:07:19.784Z,1007.25
2018-12-13T00:08:18.614Z,1007.24
2018-12-13T00:09:17.190Z,1007.25
2018-12-13T00:10:15.787Z,1007.24
2018-12-13T00:11:14.559Z,1007.2
2018-12-13T00:12:13.256Z,1007.23
2018-12-13T00:13:11.816Z,1007.23
2018-12-13T00:14:10.728Z,1007.19
2018-12-13T00:15:09.255Z,1007.25
2018-12-13T00:16:07.775Z,1007.23
2018-12-13T00:17:06.331Z,1007.23
2018-12-13T00:18:04.873Z,1007.24
2018-12-13T00:19:03.402Z,1007.27
2018-12-13T00:20:02.008Z,1007.25
2018-12-13T00:21:00.821Z,1007.23
2018-12-13T00:21:59.543Z,1007.24
2018-12-13T00:22:58.281Z,1007.25
2018-12-13T00:23:56.878Z,1007.22
2018-12-13T00:24:55.568Z,1007.22
2018-12-13T00:25:54.110Z,1007.23
2018-12-13T00:26:52.908Z,1007.22
2018-12-13T00:27:51.434Z,1007.18
2018-12-13T00:28:50.002Z,1007.2
2018-12-13T00:29:48.947Z,1007.14
2018-12-13T00:30:47.644Z,1007.15
2018-12-13T00:31:46.174Z,1007.15
2018-12-13T00:32:44.953Z,1007.16
2018-12-13T00:33:43.491Z,1007.12
2018-12-13T00:34:42.046Z,1007.13
2018-12-13T00:35:41.091Z,1007.15
2018-12-13T00:36:39.926Z,1007.15
2018-12-13T00:37:38.145Z,1007.16
2018-12-13T00:38:36.660Z,1007.16
2018-12-13T00:39:35.184Z,1007.12
2018-12-13T00:40:33.723Z,1007.13
2018-12-13T00:41:32.339Z,1007.19
2018-12-13T00:42:31.148Z,1007.18
2018-12-13T00:43:29.691Z,1007.16
2018-12-13T00:44:28.231Z,1007.16
2018-12-13T00:45:27.015Z,1007.09
2018-12-13T00:46:25.564Z,1007.12
2018-12-13T00:47:24.227Z,1007.14
2018-12-13T00:48:22.761Z,1007.11
2018-12-13T00:49:21.305Z,1007.12
2018-12-13T00:50:19.839Z,1007.12
2018-12-13T00:51:18.374Z,1007.13
2018-12-13T00:52:16.916Z,1007.1
2018-12-13T00:53:15.426Z,1007.1
2018-12-13T00:54:13.996Z,1007.09
2018-12-13T00:55:12.893Z,1007.09
2018-12-13T00:56:11.505Z,1007.09
2018-12-13T00:57:10.039Z,1007.06
2018-12-13T00:58:08.875Z,1007.06
2018-12-13T00:59:12.924Z,1007.04
2018-12-13T01:00:11.514Z,1007.07
2018-12-13T01:01:10.277Z,1007.02
2018-12-13T01:02:08.832Z,1006.96
2018-12-13T01:03:07.392Z,1006.94
2018-12-13T01:04:05.976Z,1006.96
2018-12-13T01:05:04.485Z,1006.96
2018-12-13T01:06:03.190Z,1006.96
2018-12-13T01:07:01.743Z,1006.97
2018-12-13T01:08:00.415Z,1006.88
2018-12-13T01:08:59.329Z,1006.88
2018-12-13T01:09:57.859Z,1006.92
2018-12-13T01:10:56.423Z,1006.92
2018-12-13T01:11:54.997Z,1006.85
2018-12-13T01:12:53.580Z,1006.87
2018-12-13T01:13:52.106Z,1006.89
2018-12-13T01:14:50.664Z,1006.93
2018-12-13T01:15:49.314Z,1006.94
2018-12-13T01:16:48.119Z,1006.88
2018-12-13T01:17:47.039Z,1006.86
2018-12-13T01:18:45.570Z,1006.89
2018-12-13T01:19:44.116Z,1006.88
2018-12-13T01:20:42.667Z,1006.86
2018-12-13T01:21:41.203Z,1006.91
2018-12-13T01:22:39.758Z,1006.89
2018-12-13T01:23:38.291Z,1006.83
2018-12-13T01:24:37.105Z,1006.86
2018-12-13T01:25:35.679Z,1006.86
2018-12-13T01:26:34.234Z,1006.85
2018-12-13T01:27:33.052Z,1006.81
2018-12-13T01:28:31.616Z,1006.93
2018-12-13T01:29:30.307Z,1006.92
2018-12-13T01:30:28.876Z,1006.89
2018-12-13T01:31:27.435Z,1006.9
2018-12-13T01:32:25.963Z,1006.87
2018-12-13T01:33:24.818Z,1006.86
2018-12-13T01:34:23.468Z,1006.89
2018-12-13T01:35:22.026Z,1006.95
2018-12-13T01:36:20.935Z,1006.95
2018-12-13T01:37:19.491Z,1006.93
2018-12-13T01:38:18.034Z,1006.81
2018-12-13T01:39:16.866Z,1006.86
2018-12-13T01:40:15.427Z,1006.88
2018-12-13T01:41:13.970Z,1006.85
2018-12-13T01:42:12.921Z,1006.83
2018-12-13T01:43:11.465Z,1006.85
2018-12-13T01:44:10.020Z,1006.83
2018-12-13T01:45:08.561Z,1006.82
2018-12-13T01:46:07.162Z,1006.76
2018-12-13T01:47:05.702Z,1006.79
2018-12-13T01:48:04.241Z,1006.76
2018-12-13T01:49:03.088Z,1006.73
2018-12-13T01:50:01.642Z,1006.72
2018-12-13T01:51:00.293Z,1006.76
2018-12-13T01:51:59.045Z,1006.72
2018-12-13T01:52:57.588Z,1006.71
2018-12-13T01:53:56.129Z,1006.7
2018-12-13T01:54:54.803Z,1006.71
2018-12-13T01:55:53.300Z,1006.74
2018-12-13T01:56:52.005Z,1006.7
2018-12-13T01:57:50.770Z,1006.69
2018-12-13T01:58:49.458Z,1006.71
2018-12-13T01:59:48.257Z,1006.69
2018-12-13T02:00:46.807Z,1006.64
2018-12-13T02:01:45.382Z,1006.67
2018-12-13T02:02:43.945Z,1006.58
2018-12-13T02:03:42.772Z,1006.57
2018-12-13T02:04:41.478Z,1006.57
2018-12-13T02:05:39.989Z,1006.58
2018-12-13T02:06:38.788Z,1006.53
2018-12-13T02:07:37.314Z,1006.47
2018-12-13T02:08:35.859Z,1006.47
2018-12-13T02:09:34.377Z,1006.48
2018-12-13T02:10:32.938Z,1006.45
2018-12-13T02:11:31.462Z,1006.45
2018-12-13T02:12:30.036Z,1006.54
2018-12-13T02:13:28.568Z,1006.51
2018-12-13T02:14:27.158Z,1006.52
2018-12-13T02:15:25.693Z,1006.51
2018-12-13T02:16:24.225Z,1006.53
2018-12-13T02:17:23.078Z,1006.47
2018-12-13T02:18:21.612Z,1006.48
2018-12-13T02:19:20.190Z,1006.52
2018-12-13T02:20:19.067Z,1006.48
2018-12-13T02:21:17.635Z,1006.51
2018-12-13T02:22:16.188Z,1006.49
2018-12-13T02:23:14.762Z,1006.52
2018-12-13T02:24:13.312Z,1006.5
2018-12-13T02:25:11.867Z,1006.48
2018-12-13T02:26:10.677Z,1006.56
2018-12-13T02:27:09.394Z,1006.51
2018-12-13T02:28:08.084Z,1006.56
2018-12-13T02:29:06.702Z,1006.48
2018-12-13T02:30:05.270Z,1006.51
2018-12-13T02:31:03.780Z,1006.49
2018-12-13T02:32:02.344Z,1006.53
2018-12-13T02:33:00.988Z,1006.51
2018-12-13T02:33:59.518Z,1006.53
2018-12-13T02:34:58.048Z,1006.49
2018-12-13T02:35:56.840Z,1006.42
2018-12-13T02:36:55.482Z,1006.37
2018-12-13T02:37:54.053Z,1006.4
2018-12-13T02:38:52.813Z,1006.4
2018-12-13T02:39:51.365Z,1006.4
2018-12-13T02:40:49.900Z,1006.38
2018-12-13T02:41:48.459Z,1006.4
2018-12-13T02:42:46.973Z,1006.35
2018-12-13T02:43:45.527Z,1006.34
2018-12-13T02:44:44.222Z,1006.36
2018-12-13T02:45:43.006Z,1006.37
2018-12-13T02:46:41.539Z,1006.31
2018-12-13T02:47:40.100Z,1006.29
2018-12-13T02:48:38.962Z,1006.26
2018-12-13T02:49:37.565Z,1006.3
2018-12-13T02:50:36.077Z,1006.25
2018-12-13T02:51:34.600Z,1006.2
2018-12-13T02:52:33.165Z,1006.29
2018-12-13T02:53:31.695Z,1006.21
2018-12-13T02:54:30.258Z,1006.22
2018-12-13T02:55:29.043Z,1006.17
2018-12-13T02:56:27.578Z,1006.15
2018-12-13T02:57:26.130Z,1006.2
2018-12-13T02:58:25.018Z,1006.2
2018-12-13T02:59:23.568Z,1006.24
2018-12-13T03:00:22.240Z,1006.27
2018-12-13T03:01:20.785Z,1006.25
2018-12-13T03:02:19.308Z,1006.21
2018-12-13T03:03:17.852Z,1006.18
2018-12-13T03:04:16.372Z,1006.2
2018-12-13T03:05:14.907Z,1006.21
2018-12-13T03:06:13.461Z,1006.19
2018-12-13T03:07:13.854Z,1006.16
2018-12-13T03:08:10.692Z,1006.16
2018-12-13T03:09:09.296Z,1006.19
2018-12-13T03:10:07.832Z,1006.12
2018-12-13T03:11:06.497Z,1006.09
2018-12-13T03:12:05.238Z,1006.12
2018-12-13T03:13:03.801Z,1006.03
2018-12-13T03:14:02.498Z,1006
2018-12-13T03:15:01.036Z,1006.02
2018-12-13T03:15:59.589Z,1005.98
2018-12-13T03:16:58.145Z,1005.99
2018-12-13T03:17:56.737Z,1005.96
2018-12-13T03:18:55.496Z,1006.02
2018-12-13T03:19:54.019Z,1006.02
2018-12-13T03:20:53.099Z,1006.02
2018-12-13T03:21:51.659Z,1005.98
2018-12-13T03:22:50.236Z,1006.02
2018-12-13T03:23:48.880Z,1005.99
2018-12-13T03:24:47.428Z,1005.98
2018-12-13T03:25:46.010Z,1006
2018-12-13T03:26:45.358Z,1006.01
2018-12-13T03:27:45.179Z,1006.01
2018-12-13T03:28:43.705Z,1006.03
2018-12-13T03:29:42.215Z,1006
2018-12-13T03:30:41.031Z,1005.97
2018-12-13T03:31:39.568Z,1005.95
2018-12-13T03:32:38.275Z,1005.96
2018-12-13T03:33:36.726Z,1006
2018-12-13T03:34:35.352Z,1005.97
2018-12-13T03:35:33.795Z,1005.97
2018-12-13T03:36:32.322Z,1005.97
2018-12-13T03:37:30.875Z,1005.97
2018-12-13T03:38:29.517Z,1005.96
2018-12-13T03:39:28.065Z,1005.93
2018-12-13T03:40:26.873Z,1005.92
2018-12-13T03:41:25.584Z,1005.89
2018-12-13T03:42:24.301Z,1005.94
2018-12-13T03:43:22.890Z,1005.9
2018-12-13T03:44:21.422Z,1005.88
2018-12-13T03:45:19.999Z,1005.87
2018-12-13T03:46:18.532Z,1005.89
2018-12-13T03:47:17.190Z,1005.83
2018-12-13T03:48:15.749Z,1005.84
2018-12-13T03:49:14.553Z,1005.81
2018-12-13T03:50:13.362Z,1005.82
2018-12-13T03:51:11.923Z,1005.87
2018-12-13T03:52:10.537Z,1005.82
2018-12-13T03:53:09.126Z,1005.82
2018-12-13T03:54:07.653Z,1005.83
2018-12-13T03:55:06.624Z,1005.82
2018-12-13T03:56:05.312Z,1005.84
2018-12-13T03:57:03.869Z,1005.85
2018-12-13T03:58:02.577Z,1005.75
2018-12-13T03:59:01.134Z,1005.75
2018-12-13T03:59:59.685Z,1005.72
2018-12-13T04:00:58.198Z,1005.74
2018-12-13T04:01:56.749Z,1005.73
2018-12-13T04:02:55.289Z,1005.75
2018-12-13T04:03:53.802Z,1005.68
2018-12-13T04:04:52.349Z,1005.72
2018-12-13T04:05:50.985Z,1005.69
2018-12-13T04:06:49.514Z,1005.71
2018-12-13T04:07:48.050Z,1005.72
2018-12-13T04:08:46.881Z,1005.69
2018-12-13T04:09:46.345Z,1005.69
2018-12-13T04:10:45.141Z,1005.69
2018-12-13T04:11:43.678Z,1005.72
2018-12-13T04:12:42.292Z,1005.64
2018-12-13T04:13:40.931Z,1005.64
2018-12-13T04:14:39.451Z,1005.63
2018-12-13T04:15:37.997Z,1005.59
2018-12-13T04:16:36.709Z,1005.53
2018-12-13T04:17:35.751Z,1005.52
2018-12-13T04:18:34.418Z,1005.53
2018-12-13T04:19:33.003Z,1005.5
2018-12-13T04:20:31.551Z,1005.49
2018-12-13T04:21:30.074Z,1005.49
2018-12-13T04:22:28.656Z,1005.48
2018-12-13T04:23:27.410Z,1005.48
2018-12-13T04:24:25.961Z,1005.48
2018-12-13T04:25:24.978Z,1005.41
2018-12-13T04:26:23.505Z,1005.41
2018-12-13T04:27:22.049Z,1005.37
2018-12-13T04:28:20.625Z,1005.4
2018-12-13T04:29:19.164Z,1005.37
2018-12-13T04:30:17.727Z,1005.38
2018-12-13T04:31:16.306Z,1005.36
2018-12-13T04:32:15.153Z,1005.34
2018-12-13T04:33:13.686Z,1005.39
2018-12-13T04:34:12.212Z,1005.34
2018-12-13T04:35:11.027Z,1005.32
2018-12-13T04:36:09.579Z,1005.39
2018-12-13T04:37:08.130Z,1005.39
2018-12-13T04:38:06.734Z,1005.33
2018-12-13T04:40:46.776Z,1005.36
2018-12-13T04:41:45.337Z,1005.38
2018-12-13T04:42:43.872Z,1005.35
2018-12-13T04:43:42.689Z,1005.4
2018-12-13T04:44:41.587Z,1005.32
2018-12-13T04:45:40.251Z,1005.33
2018-12-13T04:46:38.814Z,1005.28
2018-12-13T04:47:37.369Z,1005.3
2018-12-13T04:48:35.932Z,1005.21
2018-12-13T04:49:34.449Z,1005.22
2018-12-13T04:50:33.259Z,1005.23
2018-12-13T04:51:31.797Z,1005.24
2018-12-13T04:52:30.400Z,1005.22
2018-12-13T04:53:29.313Z,1005.16
2018-12-13T04:54:27.851Z,1005.2
2018-12-13T04:55:26.412Z,1005.19
2018-12-13T04:56:24.969Z,1005.23
2018-12-13T04:57:23.546Z,1005.23
2018-12-13T04:58:22.101Z,1005.19
2018-12-13T04:59:20.974Z,1005.12
2018-12-13T05:00:19.471Z,1005.17
2018-12-13T05:01:18.086Z,1005.12
2018-12-13T05:02:16.969Z,1005.16
2018-12-13T05:03:15.468Z,1005.12
2018-12-13T05:04:13.997Z,1005.1
2018-12-13T05:05:12.604Z,1005.11
2018-12-13T05:06:11.146Z,1005.08
2018-12-13T05:07:09.692Z,1005.04
2018-12-13T05:08:08.360Z,1005.07
2018-12-13T05:09:07.153Z,1005.04
2018-12-13T05:10:05.695Z,1005.02
2018-12-13T05:11:04.623Z,1005.06
2018-12-13T05:12:03.167Z,1005.03
2018-12-13T05:13:01.716Z,1004.99
2018-12-13T05:14:00.270Z,1005.05
2018-12-13T05:14:58.785Z,1005.02
2018-12-13T05:15:57.350Z,1004.97
2018-12-13T05:16:55.887Z,1004.97
2018-12-13T05:17:54.577Z,1004.95
2018-12-13T05:18:53.181Z,1004.97
2018-12-13T05:19:51.777Z,1004.95
2018-12-13T05:20:50.304Z,1004.95
2018-12-13T05:21:49.184Z,1005.03
2018-12-13T05:22:47.720Z,1004.94
2018-12-13T05:23:46.399Z,1004.88
2018-12-13T05:24:44.933Z,1004.92
2018-12-13T05:25:43.491Z,1004.86
2018-12-13T05:26:42.040Z,1004.92
2018-12-13T05:27:40.638Z,1004.94
2018-12-13T05:28:39.297Z,1004.89
2018-12-13T05:29:37.823Z,1004.87
2018-12-13T05:30:36.437Z,1004.82
2018-12-13T05:31:35.353Z,1004.8
2018-12-13T05:32:33.892Z,1004.8
2018-12-13T05:33:32.505Z,1004.79
2018-12-13T05:34:31.118Z,1004.85
2018-12-13T05:35:29.645Z,1004.86
2018-12-13T05:36:28.177Z,1004.88
2018-12-13T05:37:26.714Z,1004.84
2018-12-13T05:38:25.312Z,1004.76
2018-12-13T05:39:23.851Z,1004.84
2018-12-13T05:40:22.560Z,1004.77
2018-12-13T05:41:21.252Z,1004.76
2018-12-13T05:42:19.797Z,1004.78
2018-12-13T05:43:18.612Z,1004.79
2018-12-13T05:44:17.134Z,1004.75
2018-12-13T05:45:15.691Z,1004.83
2018-12-13T05:46:14.227Z,1004.8
2018-12-13T05:47:12.754Z,1004.74
2018-12-13T05:48:11.287Z,1004.82
2018-12-13T05:49:09.842Z,1004.74
2018-12-13T05:50:08.373Z,1004.77
2018-12-13T05:51:06.901Z,1004.82
2018-12-13T05:52:05.411Z,1004.77
2018-12-13T05:53:03.980Z,1004.72
2018-12-13T05:54:02.883Z,1004.79
2018-12-13T05:55:01.439Z,1004.77
2018-12-13T05:56:00.326Z,1004.69
2018-12-13T05:56:58.945Z,1004.72
2018-12-13T05:57:57.519Z,1004.66
2018-12-13T05:58:56.035Z,1004.69
2018-12-13T05:59:54.582Z,1004.74
2018-12-13T06:00:53.230Z,1004.73
2018-12-13T06:01:51.752Z,1004.7
2018-12-13T06:02:50.565Z,1004.69
2018-12-13T06:03:49.248Z,1004.71
2018-12-13T06:04:47.808Z,1004.8
2018-12-13T06:05:46.493Z,1004.76
2018-12-13T06:06:45.078Z,1004.78
2018-12-13T06:07:43.599Z,1004.73
2018-12-13T06:08:42.151Z,1004.74
2018-12-13T06:09:40.788Z,1004.75
2018-12-13T06:10:39.348Z,1004.8
2018-12-13T06:11:37.889Z,1004.75
2018-12-13T06:12:36.687Z,1004.77
2018-12-13T06:13:35.469Z,1004.78
2018-12-13T06:14:34.049Z,1004.77
2018-12-13T06:15:32.790Z,1004.69
2018-12-13T06:16:31.353Z,1004.76
2018-12-13T06:17:29.866Z,1004.78
2018-12-13T06:18:28.696Z,1004.76
2018-12-13T06:19:27.329Z,1004.73
2018-12-13T06:20:25.889Z,1004.78
2018-12-13T06:21:24.752Z,1004.78
2018-12-13T06:22:23.336Z,1004.77
2018-12-13T06:23:21.983Z,1004.8
2018-12-13T06:24:20.911Z,1004.77
2018-12-13T06:25:19.521Z,1004.78
2018-12-13T06:26:18.060Z,1004.7
2018-12-13T06:27:16.834Z,1004.7
2018-12-13T06:28:15.359Z,1004.73
2018-12-13T06:29:13.909Z,1004.73
2018-12-13T06:30:12.473Z,1004.77
2018-12-13T06:31:11.005Z,1004.76
2018-12-13T06:32:09.589Z,1004.71
2018-12-13T06:33:08.151Z,1004.77
2018-12-13T06:34:07.018Z,1004.79
2018-12-13T06:35:05.562Z,1004.75
2018-12-13T06:36:04.110Z,1004.85
2018-12-13T06:37:02.997Z,1004.81
2018-12-13T06:38:01.615Z,1004.8
2018-12-13T06:39:00.069Z,1004.82
2018-12-13T06:39:58.635Z,1004.74
2018-12-13T06:40:57.183Z,1004.77
2018-12-13T06:41:55.810Z,1004.78
2018-12-13T06:42:54.616Z,1004.75
2018-12-13T06:43:53.399Z,1004.7
2018-12-13T06:44:51.911Z,1004.76
2018-12-13T06:45:50.678Z,1004.7
2018-12-13T06:46:49.219Z,1004.7
2018-12-13T06:47:47.777Z,1004.66
2018-12-13T06:48:46.355Z,1004.67
2018-12-13T06:49:44.923Z,1004.67
2018-12-13T06:50:43.487Z,1004.67
2018-12-13T06:51:42.123Z,1004.7
2018-12-13T06:52:40.788Z,1004.7
2018-12-13T06:53:39.379Z,1004.7
2018-12-13T06:54:37.994Z,1004.67
2018-12-13T06:55:36.815Z,1004.67
2018-12-13T06:56:35.428Z,1004.72
2018-12-13T06:57:33.949Z,1004.72
2018-12-13T06:58:32.497Z,1004.71
2018-12-13T06:59:31.037Z,1004.67
2018-12-13T07:00:29.646Z,1004.72
2018-12-13T07:01:28.202Z,1004.73
2018-12-13T07:02:26.993Z,1004.73
2018-12-13T07:03:25.523Z,1004.75
2018-12-13T07:04:24.046Z,1004.75
2018-12-13T07:05:22.900Z,1004.72
2018-12-13T07:06:21.456Z,1004.81
2018-12-13T07:07:20.046Z,1004.77
2018-12-13T07:08:18.585Z,1004.77
2018-12-13T07:09:17.117Z,1004.74
2018-12-13T07:10:15.639Z,1004.74
2018-12-13T07:11:14.179Z,1004.75
2018-12-13T07:12:12.719Z,1004.86
2018-12-13T07:13:11.267Z,1004.8
2018-12-13T07:14:09.832Z,1004.76
2018-12-13T07:15:08.656Z,1004.82
2018-12-13T07:16:07.374Z,1004.77
2018-12-13T07:17:05.898Z,1004.79
2018-12-13T07:18:04.634Z,1004.83
2018-12-13T07:19:03.186Z,1004.78
2018-12-13T07:20:01.721Z,1004.79
2018-12-13T07:21:00.349Z,1004.75
2018-12-13T07:21:59.190Z,1004.78
2018-12-13T07:22:57.747Z,1004.75
2018-12-13T07:23:56.295Z,1004.79
2018-12-13T07:24:55.185Z,1004.79
2018-12-13T07:25:53.733Z,1004.84
2018-12-13T07:26:52.322Z,1004.83
2018-12-13T07:27:50.898Z,1004.84
2018-12-13T07:28:49.467Z,1004.82
2018-12-13T07:29:48.005Z,1004.86
2018-12-13T07:30:46.587Z,1004.78
2018-12-13T07:31:45.298Z,1004.78
2018-12-13T07:32:43.807Z,1004.79
2018-12-13T07:33:42.447Z,1004.81
2018-12-13T07:34:41.361Z,1004.77
2018-12-13T07:35:39.901Z,1004.79
2018-12-13T07:36:38.525Z,1004.77
2018-12-13T07:37:37.100Z,1004.8
2018-12-13T07:38:35.793Z,1004.77
2018-12-13T07:39:34.371Z,1004.81
2018-12-13T07:40:33.135Z,1004.8
2018-12-13T07:41:31.661Z,1004.77
2018-12-13T07:42:30.209Z,1004.74
2018-12-13T07:43:29.107Z,1004.8
2018-12-13T07:44:27.668Z,1004.8
2018-12-13T07:45:26.347Z,1004.77
2018-12-13T07:46:25.170Z,1004.78
2018-12-13T07:47:23.719Z,1004.79
2018-12-13T07:48:22.322Z,1004.8
2018-12-13T07:49:21.055Z,1004.76
2018-12-13T07:50:19.597Z,1004.83
2018-12-13T07:51:18.166Z,1004.81
2018-12-13T07:52:16.765Z,1004.77
2018-12-13T07:53:15.318Z,1004.81
2018-12-13T07:54:13.871Z,1004.82
2018-12-13T07:55:12.406Z,1004.81
2018-12-13T07:56:11.093Z,1004.79
2018-12-13T07:57:09.801Z,1004.68
2018-12-13T07:58:08.369Z,1004.75
2018-12-13T07:59:07.173Z,1004.73
2018-12-13T08:00:05.734Z,1004.71
2018-12-13T08:01:04.406Z,1004.69
2018-12-13T08:02:02.973Z,1004.74
2018-12-13T08:03:01.487Z,1004.74
2018-12-13T08:04:00.028Z,1004.74
2018-12-13T08:04:58.542Z,1004.76
2018-12-13T08:05:57.319Z,1004.71
2018-12-13T08:06:55.874Z,1004.74
2018-12-13T08:07:54.522Z,1004.76
2018-12-13T08:08:53.427Z,1004.72
2018-12-13T08:09:51.973Z,1004.68
2018-12-13T08:10:50.590Z,1004.7
2018-12-13T08:11:49.171Z,1004.65
2018-12-13T08:12:47.722Z,1004.72
2018-12-13T08:13:46.259Z,1004.7
2018-12-13T08:14:45.082Z,1004.66
2018-12-13T08:15:43.627Z,1004.65
2018-12-13T08:16:42.192Z,1004.65
2018-12-13T08:17:41.097Z,1004.66
2018-12-13T08:18:39.666Z,1004.65
2018-12-13T08:21:19.711Z,1004.71
2018-12-13T08:22:18.220Z,1004.66
2018-12-13T08:23:17.136Z,1004.71
2018-12-13T08:24:15.651Z,1004.68
2018-12-13T08:25:14.206Z,1004.69
2018-12-13T08:26:12.989Z,1004.68
2018-12-13T08:27:11.548Z,1004.71
2018-12-13T08:28:10.093Z,1004.64
2018-12-13T08:29:08.717Z,1004.57
2018-12-13T08:30:07.281Z,1004.63
2018-12-13T08:31:05.835Z,1004.66
2018-12-13T08:32:04.380Z,1004.77
2018-12-13T08:33:02.894Z,1004.65
2018-12-13T08:34:01.443Z,1004.59
2018-12-13T08:35:00.027Z,1004.59
2018-12-13T08:35:58.985Z,1004.65
2018-12-13T08:36:57.571Z,1004.71
2018-12-13T08:37:56.253Z,1004.67
2018-12-13T08:40:19.183Z,1004.6
2018-12-13T08:41:17.735Z,1004.62
2018-12-13T08:42:16.278Z,1004.63
2018-12-13T08:43:15.213Z,1004.59
2018-12-13T08:44:13.771Z,1004.65
2018-12-13T08:45:12.360Z,1004.67
2018-12-13T08:46:10.896Z,1004.68
2018-12-13T08:47:09.399Z,1004.6
2018-12-13T08:48:07.946Z,1004.63
2018-12-13T08:49:06.498Z,1004.6
2018-12-13T08:50:05.039Z,1004.62
2018-12-13T08:51:03.576Z,1004.54
2018-12-13T08:52:02.117Z,1004.6
2018-12-13T08:53:00.989Z,1004.5
2018-12-13T08:53:59.493Z,1004.58
2018-12-13T08:54:58.017Z,1004.61
2018-12-13T08:55:57.013Z,1004.53
2018-12-13T08:56:55.553Z,1004.55
2018-12-13T08:57:54.100Z,1004.55
2018-12-13T08:58:52.644Z,1004.57
2018-12-13T08:59:51.208Z,1004.61
2018-12-13T09:00:49.754Z,1004.63
2018-12-13T09:01:48.287Z,1004.57
2018-12-13T09:02:47.170Z,1004.59
2018-12-13T09:03:45.750Z,1004.47
2018-12-13T09:04:44.546Z,1004.52
2018-12-13T09:05:43.140Z,1004.47
2018-12-13T09:06:41.698Z,1004.45
2018-12-13T09:07:40.232Z,1004.5
2018-12-13T09:08:38.786Z,1004.51
2018-12-13T09:09:37.355Z,1004.45
2018-12-13T09:10:35.871Z,1004.44
2018-12-13T09:11:34.392Z,1004.5
2018-12-13T09:12:32.941Z,1004.45
2018-12-13T09:13:31.509Z,1004.45
2018-12-13T09:14:30.079Z,1004.53
2018-12-13T09:15:28.892Z,1004.62
2018-12-13T09:16:31.398Z,1004.59
2018-12-13T09:17:26.082Z,1004.57
2018-12-13T09:18:24.839Z,1004.65
2018-12-13T09:19:23.398Z,1004.62
2018-12-13T09:20:21.920Z,1004.62
2018-12-13T09:21:20.490Z,1004.56
2018-12-13T09:22:19.017Z,1004.52
2018-12-13T09:23:17.571Z,1004.57
2018-12-13T09:24:16.123Z,1004.5
2018-12-13T09:25:14.777Z,1004.51
2018-12-13T09:26:13.436Z,1004.5
2018-12-13T09:27:12.004Z,1004.56
2018-12-13T09:28:11.014Z,1004.55
2018-12-13T09:29:09.573Z,1004.54
2018-12-13T09:30:08.123Z,1004.58
2018-12-13T09:31:06.664Z,1004.57
2018-12-13T09:32:05.227Z,1004.55
2018-12-13T09:33:03.750Z,1004.53
2018-12-13T09:34:02.318Z,1004.56
2018-12-13T09:35:01.208Z,1004.62
2018-12-13T09:35:59.726Z,1004.59
2018-12-13T09:36:58.273Z,1004.55
2018-12-13T09:37:57.059Z,1004.6
2018-12-13T09:38:55.598Z,1004.6
2018-12-13T09:39:54.169Z,1004.63
2018-12-13T09:40:52.876Z,1004.63
2018-12-13T09:41:51.511Z,1004.72
2018-12-13T09:42:50.125Z,1004.55
2018-12-13T09:43:48.814Z,1004.6
2018-12-13T09:44:47.500Z,1004.54
2018-12-13T09:45:46.268Z,1004.54
2018-12-13T09:46:44.859Z,1004.54
2018-12-13T09:47:43.496Z,1004.59
2018-12-13T09:48:42.037Z,1004.51
2018-12-13T09:49:40.948Z,1004.49
2018-12-13T09:50:40.375Z,1004.57
2018-12-13T09:51:38.129Z,1004.51
2018-12-13T09:52:36.885Z,1004.47
2018-12-13T09:53:35.433Z,1004.48
2018-12-13T09:54:33.993Z,1004.48
2018-12-13T09:55:32.521Z,1004.46
2018-12-13T09:56:31.094Z,1004.47
2018-12-13T09:57:29.650Z,1004.51
2018-12-13T09:58:28.267Z,1004.55
2018-12-13T09:59:27.072Z,1004.44
2018-12-13T10:00:25.645Z,1004.45
2018-12-13T10:01:24.168Z,1004.35
2018-12-13T10:02:23.107Z,1004.46
2018-12-13T10:03:21.666Z,1004.43
2018-12-13T10:04:20.212Z,1004.37
2018-12-13T10:05:19.352Z,1004.34
2018-12-13T10:06:17.284Z,1004.33
2018-12-13T10:07:15.893Z,1004.27
2018-12-13T10:08:14.733Z,1004.31
2018-12-13T10:09:13.401Z,1004.31
2018-12-13T10:10:12.139Z,1004.18
2018-12-13T10:11:10.780Z,1004.26
2018-12-13T10:12:09.329Z,1004.23
2018-12-13T10:13:07.862Z,1004.24
2018-12-13T10:14:06.551Z,1004.33
2018-12-13T10:15:05.238Z,1004.29
2018-12-13T10:16:03.801Z,1004.31
2018-12-13T10:17:02.378Z,1004.2
2018-12-13T10:18:01.127Z,1004.19
2018-12-13T10:18:59.686Z,1004.18
2018-12-13T10:19:58.315Z,1004.17
2018-12-13T10:20:56.880Z,1004.17
2018-12-13T10:21:55.427Z,1004.17
2018-12-13T10:22:53.947Z,1004.22
2018-12-13T10:23:52.502Z,1004.28
2018-12-13T10:24:51.035Z,1004.13
2018-12-13T10:25:49.615Z,1004.18
2018-12-13T10:26:48.159Z,1004.18
2018-12-13T10:27:47.021Z,1004.04
2018-12-13T10:28:45.525Z,1004.07
2018-12-13T10:29:44.100Z,1004.22
2018-12-13T10:30:42.833Z,1004.14
2018-12-13T10:31:41.407Z,1004.06
2018-12-13T10:32:39.964Z,1004.08
2018-12-13T10:33:38.609Z,1004.07
2018-12-13T10:34:37.212Z,1004.13
2018-12-13T10:35:35.733Z,1004.07
2018-12-13T10:36:34.290Z,1004.03
2018-12-13T10:37:33.214Z,1004.08
2018-12-13T10:38:31.743Z,1004.01
2018-12-13T10:39:30.357Z,1004.03
2018-12-13T10:40:29.153Z,1004.05
2018-12-13T10:41:27.690Z,1004.01
2018-12-13T10:42:26.332Z,1004.04
2018-12-13T10:43:24.876Z,1004.14
2018-12-13T10:44:23.437Z,1003.95
2018-12-13T10:48:01.920Z,1003.94
2018-12-13T10:49:01.113Z,1003.98
2018-12-13T10:49:59.681Z,1004.07
2018-12-13T10:50:58.217Z,1004.04
2018-12-13T10:51:56.830Z,1004.07
2018-12-13T10:52:55.465Z,1004.01
2018-12-13T10:53:53.951Z,1003.95
2018-12-13T10:54:52.579Z,1004
2018-12-13T10:55:51.250Z,1003.89
2018-12-13T10:56:49.761Z,1003.92
2018-12-13T10:57:48.494Z,1003.86
2018-12-13T10:58:47.321Z,1003.87
2018-12-13T10:59:45.882Z,1003.87
2018-12-13T11:00:44.445Z,1003.85
2018-12-13T11:01:43.006Z,1003.77
2018-12-13T11:02:41.567Z,1003.74
2018-12-13T11:03:40.123Z,1003.84
2018-12-13T11:04:39.063Z,1003.75
2018-12-13T11:05:37.649Z,1003.72
2018-12-13T11:06:36.207Z,1003.64
2018-12-13T11:07:35.009Z,1003.64
2018-12-13T11:08:33.553Z,1003.69
2018-12-13T11:09:32.095Z,1003.69
2018-12-13T11:10:30.625Z,1003.72
2018-12-13T11:11:29.163Z,1003.62
2018-12-13T11:12:27.702Z,1003.72
2018-12-13T11:13:26.264Z,1003.67
2018-12-13T11:14:24.814Z,1003.66
2018-12-13T11:15:23.325Z,1003.65
2018-12-13T11:16:21.864Z,1003.64
2018-12-13T11:19:02.255Z,1003.7
2018-12-13T11:20:01.107Z,1003.78
2018-12-13T11:20:59.643Z,1003.66
2018-12-13T11:21:58.168Z,1003.62
2018-12-13T11:22:56.736Z,1003.73
2018-12-13T11:23:55.287Z,1003.57
2018-12-13T11:24:53.813Z,1003.69
2018-12-13T11:25:52.358Z,1003.61
2018-12-13T11:26:50.887Z,1003.54
2018-12-13T11:27:49.411Z,1003.59
2018-12-13T11:28:47.980Z,1003.68
2018-12-13T11:29:46.822Z,1003.53
2018-12-13T11:30:45.498Z,1003.51
2018-12-13T11:31:44.274Z,1003.53
2018-12-13T11:32:42.892Z,1003.47
2018-12-13T11:33:41.464Z,1003.49
2018-12-13T11:34:40.011Z,1003.59
2018-12-13T11:35:38.580Z,1003.61
2018-12-13T11:36:37.180Z,1003.53
2018-12-13T11:37:35.738Z,1003.52
2018-12-13T11:38:34.450Z,1003.54
2018-12-13T11:39:33.338Z,1003.5
2018-12-13T11:40:31.868Z,1003.47
2018-12-13T11:41:30.529Z,1003.5
2018-12-13T11:42:29.093Z,1003.49
2018-12-13T11:43:27.672Z,1003.54
2018-12-13T11:44:26.252Z,1003.46
2018-12-13T11:45:24.811Z,1003.52
2018-12-13T11:46:23.484Z,1003.57
2018-12-13T11:47:22.387Z,1003.57
2018-12-13T11:48:20.659Z,1003.57
2018-12-13T11:49:19.325Z,1003.57
2018-12-13T11:50:17.869Z,1003.55
2018-12-13T11:51:16.507Z,1003.55
2018-12-13T11:52:15.225Z,1003.56
2018-12-13T11:53:13.790Z,1003.49
2018-12-13T11:54:12.314Z,1003.53
2018-12-13T11:55:10.859Z,1003.48
2018-12-13T11:56:09.383Z,1003.51
2018-12-13T11:57:07.957Z,1003.67
2018-12-13T11:58:06.461Z,1003.51
2018-12-13T11:59:05.336Z,1003.54
2018-12-13T12:00:03.881Z,1003.5
2018-12-13T12:01:02.477Z,1003.45